Latest Coastal Weather Observations for Coffs Harbour Airport

IDN60701

Issued at 11:02 am EDT Wednesday 19 December 2018 (issued every 10 minutes, with the page automatically refreshed every 10 minutes)

About coastal observations | Map of coastal stations | Coastal observations for NSW | Marine services | Other Formats
Station Details ID: 059151 Name: COFFS HARBOUR AIRPORT Lat: -30.32 Lon: 153.12 Height: 3.5 m
Data from the previous 72 hours. | See also: Recent months at Coffs Harbour Airport
Date/Time
EDT
Wind Sea
Height
m
Swell Vis
km
Cloud Weather Temp
°C
Press
hPa
Rain since
9am
mm
Dir  Spd
kts
Gust
kts
Height
m
Period
s
Dir
19/11:00am NE 15 20 - - - - 10 - - 26.3 1013.8 0.0
19/10:30am NE 13 17 - - - - 10 - - 26.2 1013.9 0.0
19/10:00am NE 13 16 - - - - 10 - - 26.0 1014.0 0.0
19/09:30am NNW 7 11 - - - - 10 - - 26.6 1014.0 0.0
19/09:00am NW 7 10 - - - - 10 - - 25.9 1013.8 -
19/08:30am N 7 9 - - - - 10 - - 25.8 1013.6 -
19/08:00am NNW 7 9 - - - - 10 - - 25.4 1013.5 -
19/07:30am N 6 9 - - - - 10 - - 24.7 1013.4 -
19/07:00am N 5 7 - - - - 10 - - 24.1 1013.4 -
19/06:30am N 5 6 - - - - 10 - - 23.0 1013.1 -
19/06:00am N 5 7 - - - - 10 - - 22.2 1013.0 -
19/05:30am NNE 6 7 - - - - 10 - - 22.5 1012.7 -
19/05:00am NNE 9 11 - - - - 10 - - 23.1 1012.5 -
19/02:00am N 6 8 - - - - 10 - - 23.2 1012.9 0.0
19/01:30am N 7 9 - - - - 10 - - 23.4 1013.1 0.0
19/01:00am N 5 8 - - - - 10 - - 22.9 1013.6 0.0
19/12:30am N 7 10 - - - - 10 - - 23.3 1013.8 0.0
19/12:00am N 7 9 - - - - 10 - - 22.8 1014.0 0.0
 
Date/Time
EDT
Wind Sea
Height
m
Swell Vis
km
Cloud Weather Temp
°C
Press
hPa
Rain since
9am
mm
Dir  Spd
kts
Gust
kts
Height
m
Period
s
Dir
18/11:30pm N 6 7 - - - - 10 - - 23.4 1014.2 0.0
18/11:00pm N 6 7 - - - - 10 - - 23.4 1014.5 0.0
18/10:30pm N 8 10 - - - - 10 - - 23.7 1014.3 0.0
18/10:00pm N 9 10 - - - - 10 - - 23.9 1014.1 0.0
18/09:30pm N 9 14 - - - - 10 - - 23.9 1013.9 0.0
18/09:00pm NNE 9 12 - - - - 10 - - 23.9 1013.6 0.0
18/08:30pm NNE 10 14 - - - - 10 - - 23.7 1013.3 0.0
18/08:00pm NNE 9 14 - - - - 10 - - 23.7 1013.0 0.0
18/07:30pm NNE 13 17 - - - - 10 - - 23.8 1012.7 0.0
18/07:00pm NNE 14 19 - - - - 10 - - 24.2 1012.2 0.0
18/06:30pm NNE 15 22 - - - - 10 - - 24.1 1011.6 0.0
18/06:00pm NNE 15 23 - - - - 10 - - 24.3 1011.6 0.0
18/05:30pm NNE 18 24 - - - - 10 - - 24.5 1011.2 0.0
18/05:00pm NNE 17 25 - - - - 10 - - 25.7 1011.1 0.0
18/04:30pm NE 18 25 - - - - 10 - - 25.2 1010.9 0.0
18/04:00pm NNE 19 27 - - - - 10 - - 25.9 1011.0 0.0
18/03:30pm NNE 20 27 - - - - 10 - - 26.0 1011.1 0.0
18/03:00pm NE 19 27 - - - - 10 - - 26.5 1011.3 0.0
18/02:30pm NE 19 25 - - - - 10 - - 25.9 1011.6 0.0
18/02:00pm NE 18 24 - - - - 10 - - 25.8 1011.7 0.0
18/01:30pm NE 20 26 - - - - 10 - - 25.4 1012.0 0.0
18/01:00pm NE 18 23 - - - - 10 - - 25.7 1012.2 0.0
18/12:30pm NE 18 22 - - - - 10 - - 26.1 1012.5 0.0
18/12:00pm NE 18 24 - - - - 10 - - 25.7 1012.7 0.0
18/11:30am NE 17 23 - - - - 10 - - 25.3 1013.1 0.0
18/11:00am NNE 17 22 - - - - 10 - - 25.3 1013.3 0.0
18/10:30am NE 15 19 - - - - 10 - - 25.6 1013.3 0.0
18/10:00am NNE 15 18 - - - - 10 - - 24.4 1013.4 0.0
18/09:30am NE 13 18 - - - - 10 - - 23.6 1013.5 0.0
18/09:00am NNW 10 15 - - - - 10 - - 25.0 1013.5 0.0
18/08:30am NNW 12 17 - - - - 10 - - 24.8 1013.4 0.0
18/08:00am N 10 13 - - - - 10 - - 24.2 1013.2 0.0
18/07:30am NNW 11 17 - - - - 10 - - 24.1 1013.0 0.0
18/07:00am N 9 12 - - - - 10 - - 23.9 1012.6 0.0
18/06:30am NNE 7 9 - - - - 10 - - 23.0 1012.3 0.0
18/06:00am N 12 16 - - - - 10 - - 22.8 1011.9 0.0
18/05:30am N 9 14 - - - - 10 - - 22.4 1011.7 0.0
18/05:00am N 8 11 - - - - 10 - - 22.2 1011.4 0.0
18/04:30am N 9 15 - - - - 10 - - 22.1 1011.3 0.0
18/04:00am NNE 6 8 - - - - 10 - - 21.3 1011.3 0.0
18/03:30am NNW 7 10 - - - - 10 - - 22.1 1011.1 0.0
18/03:00am N 10 15 - - - - 10 - - 22.4 1011.2 0.0
18/02:30am N 9 12 - - - - 10 - - 22.3 1011.1 0.0
18/02:00am N 9 14 - - - - 10 - - 22.3 1011.4 0.0
18/01:30am N 9 11 - - - - 10 - - 22.6 1011.7 0.0
18/01:00am N 9 16 - - - - 10 - - 22.6 1011.8 0.0
18/12:30am NNW 7 10 - - - - 10 - - 22.5 1012.2 0.0
18/12:00am NNW 6 9 - - - - 10 - - 22.6 1012.5 0.0
 
Date/Time
EDT
Wind Sea
Height
m
Swell Vis
km
Cloud Weather Temp
°C
Press
hPa
Rain since
9am
mm
Dir  Spd
kts
Gust
kts
Height
m
Period
s
Dir
17/11:30pm NNW 7 10 - - - - 10 - - 22.8 1012.4 0.0
17/11:00pm N 10 14 - - - - 10 - - 22.9 1012.7 0.0
17/10:30pm N 11 16 - - - - 10 - - 23.1 1012.9 0.0
17/10:00pm NNE 10 15 - - - - 10 - - 22.8 1013.0 0.0
17/09:30pm N 11 15 - - - - 10 - - 22.9 1012.9 0.0
17/09:00pm N 12 16 - - - - 10 - - 22.6 1012.8 0.0
17/08:30pm NNE 14 18 - - - - 10 - - 22.8 1012.4 0.0
17/08:00pm NNE 14 19 - - - - 10 - - 22.8 1012.2 0.0
17/07:30pm NNE 15 18 - - - - 10 - - 22.9 1011.7 0.0
17/07:00pm NNE 17 22 - - - - 10 - - 23.2 1011.1 0.0
17/06:30pm NNE 16 22 - - - - 10 - - 23.6 1010.9 0.0
17/06:00pm NNE 18 22 - - - - 10 - - 24.0 1010.5 0.0
17/05:30pm NNE 17 24 - - - - 10 - - 24.7 1010.3 0.0
17/05:00pm NNE 16 21 - - - - 10 - - 24.8 1010.2 0.0
17/04:30pm NNE 17 23 - - - - 10 - - 24.5 1010.1 0.0
17/04:00pm NNE 19 24 - - - - 10 - - 23.9 1010.3 0.0
17/03:30pm NNE 19 26 - - - - 10 - - 24.3 1010.5 0.0
17/03:00pm NNE 19 25 - - - - 10 - - 24.6 1010.7 0.0
17/02:30pm NNE 19 26 - - - - 10 - - 24.3 1010.7 0.0
17/02:00pm NNE 19 26 - - - - 10 - - 24.4 1010.7 0.0
17/01:30pm NNE 19 26 - - - - 10 Partly cloudy - 25.7 1010.6 0.0
17/01:00pm NE 17 22 - - - - 10 Cloudy - 24.5 1010.7 0.0
17/12:30pm NNE 18 24 - - - - 10 Cloudy - 24.4 1010.9 0.0
17/12:00pm NE 17 21 - - - - 10 Mostly cloudy - 23.8 1011.1 0.0
17/11:30am NNE 16 20 - - - - 10 Partly cloudy - 24.5 1011.3 0.0
17/11:00am NNE 16 20 - - - - 10 Cloudy - 24.3 1011.3 0.0
17/10:30am NE 13 17 - - - - 10 Cloudy - 23.5 1011.4 0.0
17/10:00am NE 12 16 - - - - 10 Partly cloudy - 24.0 1011.5 0.0
17/09:30am NNE 9 16 - - - - 10 Partly cloudy - 25.1 1011.4 0.0
17/09:00am NNE 9 11 - - - - 10 - - 24.2 1011.4 113.2
17/08:30am N 10 15 - - - - 10 Partly cloudy - 24.0 1011.4 113.2
17/08:00am NNW 11 14 - - - - 10 Partly cloudy - 23.3 1011.3 113.2
17/07:30am NNW 6 11 - - - - 10 Partly cloudy - 22.6 1011.5 113.2
17/07:00am NNW 5 7 - - - - 10 Partly cloudy - 22.2 1011.2 113.2
17/06:30am NW 7 10 - - - - 10 Partly cloudy - 21.2 1010.8 113.2
17/06:00am WNW 5 7 - - - - 10 Cloudy - 20.5 1010.6 113.2
17/05:30am N 11 16 - - - - 10 Partly cloudy - 20.9 1010.3 113.2
17/05:00am N 12 15 - - - - 10 - - 20.9 1009.9 113.2
17/04:30am NNW 12 17 - - - - 10 - - 20.8 1009.7 113.2
17/04:00am N 15 19 - - - - 10 Cloudy - 20.9 1009.8 113.2
17/03:30am N 16 21 - - - - 10 Partly cloudy - 20.4 1009.9 113.2
17/03:00am N 17 20 - - - - 10 Cloudy Rain 20.3 1010.1 113.0
17/02:30am N 17 22 - - - - 10 Partly cloudy - 20.1 1010.0 112.8
17/02:28am N 17 22 - - - - 10 Partly cloudy - 20.0 1010.0 112.8
17/02:06am N 11 18 - - - - 6 Partly cloudy - 19.9 1010.5 111.6
17/02:00am N 12 18 - - - - 8 Partly cloudy - 19.8 1010.7 111.2
17/01:30am NNE 14 18 - - - - 8 Partly cloudy - 19.5 1011.2 109.4
17/01:00am NNE 9 12 - - - - 5 Partly cloudy - 19.4 1012.3 107.2
17/12:30am N 8 10 - - - - 7 Partly cloudy - 19.5 1013.1 104.6
17/12:00am N 7 10 - - - - 3 Cloudy Rain 19.3 1013.5 102.2
 
Date/Time
EDT
Wind Sea
Height
m
Swell Vis
km
Cloud Weather Temp
°C
Press
hPa
Rain since
9am
mm
Dir  Spd
kts
Gust
kts
Height
m
Period
s
Dir
16/11:30pm NNE 7 11 - - - - 2 Partly cloudy - 20.4 1013.7 97.6
16/11:00pm ESE 4 7 - - - - 2 Partly cloudy - 21.3 1013.4 90.4
16/10:30pm SE 4 5 - - - - 3 Partly cloudy - 21.5 1013.1 86.4
16/10:00pm ENE 6 9 - - - - 5 Partly cloudy - 21.7 1013.1 84.6
16/09:38pm NE 8 12 - - - - 3 Partly cloudy - 21.4 1012.4 82.4
16/09:30pm NE 7 10 - - - - 3 Partly cloudy - 21.4 1012.4 81.8
16/09:19pm NE 7 9 - - - - 3 Partly cloudy - 21.4 1012.3 80.4
16/09:00pm NE 9 14 - - - - 4 Cloudy Rain 21.5 1012.1 78.8
16/08:30pm ENE 13 16 - - - - 4 Partly cloudy - 21.8 1011.4 76.4
16/08:00pm ENE 14 19 - - - - 4 Partly cloudy - 21.9 1011.1 73.0
16/07:30pm ENE 17 21 - - - - 3 Partly cloudy - 21.8 1010.9 70.0
16/07:06pm ENE 15 25 - - - - 3 Partly cloudy - 21.9 1010.9 67.4
16/07:00pm ENE 15 21 - - - - 3 Partly cloudy - 21.9 1010.8 66.6
16/06:30pm ENE 13 17 - - - - 2 Partly cloudy - 21.9 1010.5 63.4
16/06:23pm E 13 17 - - - - 2 Partly cloudy - 21.8 1010.4 61.2
16/06:00pm ENE 15 20 - - - - 2 Cloudy Rain 21.9 1010.4 53.6
16/05:46pm ENE 16 21 - - - - 3 Partly cloudy - 21.8 1010.3 51.6
16/05:30pm ENE 16 20 - - - - 3 Partly cloudy - 21.9 1010.2 49.0
16/05:00pm ENE 13 17 - - - - 2 Partly cloudy - 22.0 1010.0 41.4
16/04:30pm NE 10 16 - - - - 2 Partly cloudy - 21.9 1010.0 31.2
16/04:00pm NNE 10 16 - - - - 1 Partly cloudy - 21.9 1009.8 19.6
16/03:43pm NE 10 15 - - - - 2 Partly cloudy - 22.0 1009.9 10.2
16/03:30pm ENE 12 17 - - - - 4 Partly cloudy - 22.4 1009.9 5.8
16/03:00pm ENE 12 17 - - - - 5 Cloudy Thunderstorm 22.4 1010.0 3.4
16/02:30pm ENE 15 20 - - - - 6 Partly cloudy - 22.2 1010.0 2.6
16/02:00pm NE 11 17 - - - - 5 Partly cloudy - 22.5 1010.5 1.0
16/01:32pm NE 11 18 - - - - 6 Partly cloudy - 22.6 1010.4 0.2
16/01:30pm NE 11 16 - - - - 7 Partly cloudy - 22.7 1010.5 0.2
16/01:00pm NE 15 19 - - - - 10 Partly cloudy - 23.2 1010.1 0.2
16/12:30pm NE 14 17 - - - - 10 Partly cloudy - 23.5 1010.9 0.2
16/12:00pm NE 14 21 - - - - 10 Mostly clear - 24.1 1010.9 0.2
16/11:30am NNE 15 21 - - - - 9 Partly cloudy - 24.4 1011.3 0.2

Other Formats:

Comma delimited format used in spreadsheet applications
http://www.bom.gov.au/fwo/IDN60701/IDN60701.95729.axf

JavaScript Object Notation format (JSON) in row-major order
http://www.bom.gov.au/fwo/IDN60701/IDN60701.95729.json